sensor_id;sensor_type;location;lat;lon;timestamp;pressure;altitude;pressure_sealevel;temperature;humidity
47218;BME280;47282;53.362;-2.222;2022-12-26T13:10:45;100462.25;;;9.38;70.67
47218;BME280;47282;53.362;-2.222;2022-12-26T13:13:21;100456.13;;;10.65;68.09
47218;BME280;47282;53.362;-2.222;2022-12-26T13:15:54;100455.14;;;10.56;66.51
47218;BME280;47282;53.362;-2.222;2022-12-26T13:18:27;100459.50;;;10.95;65.39
47218;BME280;47282;53.362;-2.222;2022-12-26T13:21:02;100462.23;;;11.45;64.63
47218;BME280;47282;53.362;-2.222;2022-12-26T13:23:35;100464.55;;;11.36;64.35
47218;BME280;47282;53.362;-2.222;2022-12-26T13:26:08;100464.20;;;11.49;63.92
47218;BME280;47282;53.362;-2.222;2022-12-26T13:28:53;100471.59;;;11.60;63.95
47218;BME280;47282;53.362;-2.222;2022-12-26T13:31:23;100456.58;;;11.91;63.72
47218;BME280;47282;53.362;-2.222;2022-12-26T13:33:51;100459.96;;;11.97;63.47
47218;BME280;47282;53.362;-2.222;2022-12-26T13:36:38;100457.36;;;11.79;63.98
47218;BME280;47282;53.362;-2.222;2022-12-26T13:39:25;100459.54;;;11.88;64.10
47218;BME280;47282;53.362;-2.222;2022-12-26T13:41:58;100450.63;;;11.91;64.58
47218;BME280;47282;53.362;-2.222;2022-12-26T13:44:27;100455.12;;;12.20;64.26
47218;BME280;47282;53.362;-2.222;2022-12-26T13:46:57;100457.14;;;11.99;64.19
47218;BME280;47282;53.362;-2.222;2022-12-26T13:49:28;100456.57;;;11.90;64.00
47218;BME280;47282;53.362;-2.222;2022-12-26T13:51:59;100456.49;;;12.18;63.85
47218;BME280;47282;53.362;-2.222;2022-12-26T13:55:56;100454.40;;;11.95;63.99
47218;BME280;47282;53.362;-2.222;2022-12-26T13:58:37;100450.23;;;11.00;65.55
47218;BME280;47282;53.362;-2.222;2022-12-26T14:01:18;100457.90;;;10.14;68.41
47218;BME280;47282;53.362;-2.222;2022-12-26T14:04:06;100464.32;;;9.65;71.29
47218;BME280;47282;53.362;-2.222;2022-12-26T14:06:49;100467.40;;;8.89;73.49
47218;BME280;47282;53.362;-2.222;2022-12-26T14:09:35;100471.78;;;8.67;74.69
47218;BME280;47282;53.362;-2.222;2022-12-26T14:12:31;100470.26;;;8.21;76.44
47218;BME280;47282;53.362;-2.222;2022-12-26T14:15:14;100473.10;;;7.72;77.69
47218;BME280;47282;53.362;-2.222;2022-12-26T14:17:50;100480.57;;;7.73;78.78
47218;BME280;47282;53.362;-2.222;2022-12-26T14:20:29;100482.86;;;7.48;78.90
47218;BME280;47282;53.362;-2.222;2022-12-26T14:23:05;100487.06;;;7.36;79.24
47218;BME280;47282;53.362;-2.222;2022-12-26T14:25:48;100485.37;;;7.34;80.18
47218;BME280;47282;53.362;-2.222;2022-12-26T14:28:23;100488.55;;;6.56;81.19
47218;BME280;47282;53.362;-2.222;2022-12-26T14:31:06;100487.42;;;7.06;81.59
47218;BME280;47282;53.362;-2.222;2022-12-26T14:33:44;100487.97;;;6.82;82.35
47218;BME280;47282;53.362;-2.222;2022-12-26T14:36:22;100492.30;;;6.73;82.70
47218;BME280;47282;53.362;-2.222;2022-12-26T14:39:00;100486.63;;;6.51;82.69
47218;BME280;47282;53.362;-2.222;2022-12-26T14:42:14;100489.31;;;6.23;82.35
47218;BME280;47282;53.362;-2.222;2022-12-26T14:44:43;100494.82;;;6.09;82.31
47218;BME280;47282;53.362;-2.222;2022-12-26T14:47:11;100496.35;;;5.81;82.00
47218;BME280;47282;53.362;-2.222;2022-12-26T14:50:34;100502.88;;;5.51;82.01
47218;BME280;47282;53.362;-2.222;2022-12-26T14:53:36;100502.28;;;5.27;82.26
47218;BME280;47282;53.362;-2.222;2022-12-26T14:56:30;100513.85;;;5.44;83.33
47218;BME280;47282;53.362;-2.222;2022-12-26T14:59:26;100517.64;;;5.39;84.04
47218;BME280;47282;53.362;-2.222;2022-12-26T15:02:09;100516.62;;;5.40;84.97
47218;BME280;47282;53.362;-2.222;2022-12-26T15:05:05;100517.94;;;5.44;85.47
47218;BME280;47282;53.362;-2.222;2022-12-26T15:08:07;100518.38;;;5.18;85.26
47218;BME280;47282;53.362;-2.222;2022-12-26T15:11:06;100512.36;;;5.49;85.94
47218;BME280;47282;53.362;-2.222;2022-12-26T15:16:06;100521.01;;;5.45;85.62
47218;BME280;47282;53.362;-2.222;2022-12-26T15:20:14;100524.57;;;5.26;85.25
47218;BME280;47282;53.362;-2.222;2022-12-26T15:23:17;100518.49;;;5.18;85.21
47218;BME280;47282;53.362;-2.222;2022-12-26T15:26:08;100532.34;;;5.11;84.90
47218;BME280;47282;53.362;-2.222;2022-12-26T15:29:38;100530.55;;;5.02;85.05
47218;BME280;47282;53.362;-2.222;2022-12-26T15:32:12;100536.13;;;4.86;85.34
47218;BME280;47282;53.362;-2.222;2022-12-26T15:34:52;100546.19;;;4.76;85.80
47218;BME280;47282;53.362;-2.222;2022-12-26T15:37:35;100542.10;;;4.69;86.34
47218;BME280;47282;53.362;-2.222;2022-12-26T15:40:13;100542.13;;;4.67;86.93
47218;BME280;47282;53.362;-2.222;2022-12-26T15:42:54;100542.34;;;4.63;86.95
47218;BME280;47282;53.362;-2.222;2022-12-26T15:45:41;100545.70;;;4.81;87.71
47218;BME280;47282;53.362;-2.222;2022-12-26T15:48:31;100557.25;;;4.49;87.97
47218;BME280;47282;53.362;-2.222;2022-12-26T15:51:06;100556.57;;;4.67;87.84
47218;BME280;47282;53.362;-2.222;2022-12-26T15:53:48;100562.83;;;4.59;87.17
47218;BME280;47282;53.362;-2.222;2022-12-26T15:56:45;100560.11;;;4.16;86.49
47218;BME280;47282;53.362;-2.222;2022-12-26T15:59:59;100571.86;;;4.47;86.41
47218;BME280;47282;53.362;-2.222;2022-12-26T16:02:35;100572.66;;;4.28;86.38
47218;BME280;47282;53.362;-2.222;2022-12-26T16:05:21;100573.61;;;4.12;86.14
47218;BME280;47282;53.362;-2.222;2022-12-26T16:07:57;100571.99;;;3.96;85.86
47218;BME280;47282;53.362;-2.222;2022-12-26T16:10:31;100582.00;;;3.79;85.67
47218;BME280;47282;53.362;-2.222;2022-12-26T16:13:05;100588.02;;;3.65;85.34
47218;BME280;47282;53.362;-2.222;2022-12-26T16:15:33;100588.12;;;3.53;85.30
47218;BME280;47282;53.362;-2.222;2022-12-26T16:18:13;100584.00;;;3.61;85.55
47218;BME280;47282;53.362;-2.222;2022-12-26T16:20:42;100584.98;;;3.48;85.48
47218;BME280;47282;53.362;-2.222;2022-12-26T16:23:14;100590.95;;;3.35;85.33
47218;BME280;47282;53.362;-2.222;2022-12-26T16:25:45;100594.63;;;3.25;85.49
47218;BME280;47282;53.362;-2.222;2022-12-26T16:28:14;100596.66;;;2.96;85.67
47218;BME280;47282;53.362;-2.222;2022-12-26T16:30:43;100592.80;;;3.12;85.75
47218;BME280;47282;53.362;-2.222;2022-12-26T16:33:13;100597.29;;;3.08;85.49
47218;BME280;47282;53.362;-2.222;2022-12-26T16:35:41;100600.06;;;3.31;85.88
47218;BME280;47282;53.362;-2.222;2022-12-26T16:38:13;100598.81;;;2.97;85.87
47218;BME280;47282;53.362;-2.222;2022-12-26T16:40:43;100597.32;;;3.16;85.69
47218;BME280;47282;53.362;-2.222;2022-12-26T16:43:24;100594.83;;;2.82;85.58
47218;BME280;47282;53.362;-2.222;2022-12-26T16:45:55;100595.74;;;2.73;85.62
47218;BME280;47282;53.362;-2.222;2022-12-26T16:48:25;100595.10;;;2.92;85.55
47218;BME280;47282;53.362;-2.222;2022-12-26T16:50:56;100595.75;;;2.87;85.44
47218;BME280;47282;53.362;-2.222;2022-12-26T16:53:41;100598.86;;;2.80;85.45
47218;BME280;47282;53.362;-2.222;2022-12-26T16:56:24;100604.14;;;2.48;85.95
47218;BME280;47282;53.362;-2.222;2022-12-26T16:59:00;100611.71;;;2.75;86.14
47218;BME280;47282;53.362;-2.222;2022-12-26T17:01:31;100609.87;;;2.75;86.40
47218;BME280;47282;53.362;-2.222;2022-12-26T17:04:03;100605.51;;;2.74;86.66
47218;BME280;47282;53.362;-2.222;2022-12-26T17:06:38;100611.81;;;2.48;86.83
47218;BME280;47282;53.362;-2.222;2022-12-26T17:09:09;100612.87;;;2.76;87.32
47218;BME280;47282;53.362;-2.222;2022-12-26T17:11:51;100618.78;;;2.78;87.89
47218;BME280;47282;53.362;-2.222;2022-12-26T17:14:23;100612.28;;;2.58;88.08
47218;BME280;47282;53.362;-2.222;2022-12-26T17:16:57;100612.38;;;2.61;88.16
47218;BME280;47282;53.362;-2.222;2022-12-26T17:19:28;100606.25;;;2.62;87.72
47218;BME280;47282;53.362;-2.222;2022-12-26T17:22:30;100603.07;;;2.84;87.08
47218;BME280;47282;53.362;-2.222;2022-12-26T17:25:28;100604.02;;;2.81;87.31
47218;BME280;47282;53.362;-2.222;2022-12-26T17:28:29;100610.53;;;2.88;88.08
47218;BME280;47282;53.362;-2.222;2022-12-26T17:31:11;100600.85;;;2.72;88.56
47218;BME280;47282;53.362;-2.222;2022-12-26T17:33:40;100606.17;;;2.77;88.44
47218;BME280;47282;53.362;-2.222;2022-12-26T17:36:11;100607.81;;;3.06;88.31
47218;BME280;47282;53.362;-2.222;2022-12-26T17:38:41;100607.49;;;3.05;88.12
47218;BME280;47282;53.362;-2.222;2022-12-26T17:41:13;100609.13;;;3.05;87.79
47218;BME280;47282;53.362;-2.222;2022-12-26T17:43:42;100605.93;;;3.01;87.21
47218;BME280;47282;53.362;-2.222;2022-12-26T17:46:14;100602.61;;;2.62;86.48
47218;BME280;47282;53.362;-2.222;2022-12-26T17:48:42;100603.68;;;2.79;86.09
47218;BME280;47282;53.362;-2.222;2022-12-26T17:51:15;100608.41;;;2.67;85.87
47218;BME280;47282;53.362;-2.222;2022-12-26T17:53:48;100613.95;;;2.60;85.95
47218;BME280;47282;53.362;-2.222;2022-12-26T17:56:18;100610.53;;;2.53;85.85
47218;BME280;47282;53.362;-2.222;2022-12-26T17:58:48;100611.66;;;2.49;85.96
47218;BME280;47282;53.362;-2.222;2022-12-26T18:01:16;100616.70;;;2.68;85.86
47218;BME280;47282;53.362;-2.222;2022-12-26T18:03:44;100619.60;;;2.14;85.86
47218;BME280;47282;53.362;-2.222;2022-12-26T18:06:14;100622.36;;;2.36;85.91
47218;BME280;47282;53.362;-2.222;2022-12-26T18:08:43;100630.52;;;2.31;86.16
47218;BME280;47282;53.362;-2.222;2022-12-26T18:11:12;100628.78;;;2.32;86.72
47218;BME280;47282;53.362;-2.222;2022-12-26T18:13:41;100632.33;;;2.58;87.63
47218;BME280;47282;53.362;-2.222;2022-12-26T18:16:12;100638.50;;;2.41;87.74
47218;BME280;47282;53.362;-2.222;2022-12-26T18:18:43;100640.10;;;2.44;87.99
47218;BME280;47282;53.362;-2.222;2022-12-26T18:21:13;100640.48;;;2.69;87.99
47218;BME280;47282;53.362;-2.222;2022-12-26T18:23:42;100634.43;;;2.65;87.37
47218;BME280;47282;53.362;-2.222;2022-12-26T18:26:15;100632.38;;;2.58;86.59
47218;BME280;47282;53.362;-2.222;2022-12-26T18:28:51;100634.69;;;2.25;86.09
47218;BME280;47282;53.362;-2.222;2022-12-26T18:31:19;100633.00;;;2.14;85.81
47218;BME280;47282;53.362;-2.222;2022-12-26T18:33:47;100639.42;;;2.04;85.39
47218;BME280;47282;53.362;-2.222;2022-12-26T18:36:16;100643.81;;;1.92;85.20
47218;BME280;47282;53.362;-2.222;2022-12-26T18:38:45;100645.22;;;2.29;84.85
47218;BME280;47282;53.362;-2.222;2022-12-26T18:41:14;100646.23;;;2.18;84.61
47218;BME280;47282;53.362;-2.222;2022-12-26T18:43:42;100646.35;;;2.05;84.51
47218;BME280;47282;53.362;-2.222;2022-12-26T18:46:14;100647.60;;;1.97;84.61
47218;BME280;47282;53.362;-2.222;2022-12-26T18:48:42;100650.68;;;1.66;85.09
47218;BME280;47282;53.362;-2.222;2022-12-26T18:51:11;100656.89;;;1.67;85.46
47218;BME280;47282;53.362;-2.222;2022-12-26T18:53:39;100658.95;;;1.68;85.64
47218;BME280;47282;53.362;-2.222;2022-12-26T18:56:11;100658.23;;;1.96;85.76
47218;BME280;47282;53.362;-2.222;2022-12-26T18:58:40;100661.09;;;1.70;85.81
47218;BME280;47282;53.362;-2.222;2022-12-26T19:01:11;100665.79;;;1.96;85.69
47218;BME280;47282;53.362;-2.222;2022-12-26T19:03:40;100668.93;;;1.93;85.47
47218;BME280;47282;53.362;-2.222;2022-12-26T19:06:11;100679.48;;;1.64;85.54
47218;BME280;47282;53.362;-2.222;2022-12-26T19:08:40;100675.81;;;1.87;85.39
47218;BME280;47282;53.362;-2.222;2022-12-26T19:11:11;100682.01;;;1.84;85.33
47218;BME280;47282;53.362;-2.222;2022-12-26T19:13:40;100683.49;;;1.84;85.47
47218;BME280;47282;53.362;-2.222;2022-12-26T19:16:09;100681.84;;;1.57;85.45
47218;BME280;47282;53.362;-2.222;2022-12-26T19:18:37;100689.81;;;1.83;85.53
47218;BME280;47282;53.362;-2.222;2022-12-26T19:21:10;100695.91;;;1.54;85.44
47218;BME280;47282;53.362;-2.222;2022-12-26T19:23:38;100705.64;;;1.78;85.57
47218;BME280;47282;53.362;-2.222;2022-12-26T19:26:09;100705.98;;;1.78;85.51
47218;BME280;47282;53.362;-2.222;2022-12-26T19:28:37;100708.60;;;1.76;85.41
47218;BME280;47282;53.362;-2.222;2022-12-26T19:31:06;100712.46;;;1.74;85.43
47218;BME280;47282;53.362;-2.222;2022-12-26T19:33:35;100716.95;;;1.72;85.48
47218;BME280;47282;53.362;-2.222;2022-12-26T19:36:04;100719.98;;;1.72;85.39
47218;BME280;47282;53.362;-2.222;2022-12-26T19:38:32;100721.99;;;1.69;85.41
47218;BME280;47282;53.362;-2.222;2022-12-26T19:41:01;100732.07;;;1.67;85.66
47218;BME280;47282;53.362;-2.222;2022-12-26T19:43:30;100735.63;;;1.72;86.49
47218;BME280;47282;53.362;-2.222;2022-12-26T19:45:59;100734.78;;;1.76;87.04
47218;BME280;47282;53.362;-2.222;2022-12-26T19:48:29;100736.87;;;1.81;87.31
47218;BME280;47282;53.362;-2.222;2022-12-26T19:50:59;100739.61;;;1.59;87.25
47218;BME280;47282;53.362;-2.222;2022-12-26T19:53:27;100742.68;;;1.91;87.65
47218;BME280;47282;53.362;-2.222;2022-12-26T19:55:55;100745.55;;;1.70;88.04
47218;BME280;47282;53.362;-2.222;2022-12-26T19:58:23;100751.91;;;1.56;88.48
47218;BME280;47282;53.362;-2.222;2022-12-26T20:00:52;100745.48;;;1.87;88.83
47218;BME280;47282;53.362;-2.222;2022-12-26T20:03:20;100743.95;;;1.74;89.00
47218;BME280;47282;53.362;-2.222;2022-12-26T20:05:48;100739.20;;;1.82;88.93
47218;BME280;47282;53.362;-2.222;2022-12-26T20:08:16;100742.88;;;2.34;88.78
47218;BME280;47282;53.362;-2.222;2022-12-26T20:10:44;100753.13;;;1.91;88.93
47218;BME280;47282;53.362;-2.222;2022-12-26T20:13:12;100760.72;;;2.21;89.08
47218;BME280;47282;53.362;-2.222;2022-12-26T20:15:40;100767.76;;;2.01;88.61
47218;BME280;47282;53.362;-2.222;2022-12-26T20:18:08;100781.79;;;2.51;88.52
47218;BME280;47282;53.362;-2.222;2022-12-26T20:20:36;100784.45;;;2.05;88.65
47218;BME280;47282;53.362;-2.222;2022-12-26T20:23:04;100786.58;;;2.30;88.37
47218;BME280;47282;53.362;-2.222;2022-12-26T20:25:32;100787.74;;;2.60;88.26
47218;BME280;47282;53.362;-2.222;2022-12-26T20:28:00;100793.11;;;2.34;88.19
47218;BME280;47282;53.362;-2.222;2022-12-26T20:30:28;100803.05;;;2.14;88.20
47218;BME280;47282;53.362;-2.222;2022-12-26T20:32:56;100807.90;;;2.15;88.10
47218;BME280;47282;53.362;-2.222;2022-12-26T20:35:24;100804.06;;;2.15;88.22
47218;BME280;47282;53.362;-2.222;2022-12-26T20:37:52;100805.65;;;2.62;87.99
47218;BME280;47282;53.362;-2.222;2022-12-26T20:40:20;100811.87;;;2.08;87.92
47218;BME280;47282;53.362;-2.222;2022-12-26T20:42:48;100826.21;;;2.54;87.78
47218;BME280;47282;53.362;-2.222;2022-12-26T20:45:16;100834.34;;;1.98;87.82
47218;BME280;47282;53.362;-2.222;2022-12-26T20:47:44;100831.30;;;2.15;87.77
47218;BME280;47282;53.362;-2.222;2022-12-26T20:50:12;100829.95;;;1.90;87.92
47218;BME280;47282;53.362;-2.222;2022-12-26T20:52:40;100827.33;;;2.13;88.18
47218;BME280;47282;53.362;-2.222;2022-12-26T20:55:08;100824.14;;;2.14;88.20
47218;BME280;47282;53.362;-2.222;2022-12-26T20:57:36;100826.09;;;2.14;88.26
47218;BME280;47282;53.362;-2.222;2022-12-26T21:00:05;100819.81;;;2.10;87.76
47218;BME280;47282;53.362;-2.222;2022-12-26T21:02:34;100819.16;;;1.78;86.98
47218;BME280;47282;53.362;-2.222;2022-12-26T21:05:02;100810.49;;;2.17;86.78
47218;BME280;47282;53.362;-2.222;2022-12-26T21:07:31;100807.79;;;1.78;86.39
47218;BME280;47282;53.362;-2.222;2022-12-26T21:09:59;100811.60;;;1.68;86.29
47218;BME280;47282;53.362;-2.222;2022-12-26T21:12:27;100821.50;;;1.59;86.71
47218;BME280;47282;53.362;-2.222;2022-12-26T21:14:55;100828.40;;;1.83;87.34
47218;BME280;47282;53.362;-2.222;2022-12-26T21:17:23;100833.13;;;1.56;88.01
47218;BME280;47282;53.362;-2.222;2022-12-26T21:19:51;100832.44;;;1.88;88.43
47218;BME280;47282;53.362;-2.222;2022-12-26T21:22:19;100837.44;;;1.67;88.57
47218;BME280;47282;53.362;-2.222;2022-12-26T21:24:47;100839.06;;;1.98;88.51
47218;BME280;47282;53.362;-2.222;2022-12-26T21:27:15;100841.37;;;2.02;88.31
47218;BME280;47282;53.362;-2.222;2022-12-26T21:29:43;100840.42;;;2.03;87.77
47218;BME280;47282;53.362;-2.222;2022-12-26T21:32:11;100845.17;;;2.00;87.71
47218;BME280;47282;53.362;-2.222;2022-12-26T21:34:39;100855.50;;;1.72;87.67
47218;BME280;47282;53.362;-2.222;2022-12-26T21:37:07;100862.66;;;1.95;86.96
47218;BME280;47282;53.362;-2.222;2022-12-26T21:39:36;100863.71;;;1.90;86.88
47218;BME280;47282;53.362;-2.222;2022-12-26T21:42:06;100866.14;;;1.57;86.62
47218;BME280;47282;53.362;-2.222;2022-12-26T21:44:35;100869.95;;;1.76;86.03
47218;BME280;47282;53.362;-2.222;2022-12-26T21:47:04;100872.58;;;1.68;85.71
47218;BME280;47282;53.362;-2.222;2022-12-26T21:49:32;100872.14;;;1.58;85.50
47218;BME280;47282;53.362;-2.222;2022-12-26T21:52:00;100870.43;;;1.71;85.30
47218;BME280;47282;53.362;-2.222;2022-12-26T21:54:28;100868.12;;;1.40;85.28
47218;BME280;47282;53.362;-2.222;2022-12-26T21:56:56;100869.90;;;1.33;85.17
47218;BME280;47282;53.362;-2.222;2022-12-26T21:59:24;100870.99;;;1.25;85.08
47218;BME280;47282;53.362;-2.222;2022-12-26T22:01:52;100863.78;;;1.18;85.10
47218;BME280;47282;53.362;-2.222;2022-12-26T22:04:20;100861.49;;;1.11;85.10
47218;BME280;47282;53.362;-2.222;2022-12-26T22:06:49;100861.96;;;1.28;85.16
47218;BME280;47282;53.362;-2.222;2022-12-26T22:09:17;100871.91;;;1.25;85.38
47218;BME280;47282;53.362;-2.222;2022-12-26T22:11:46;100871.84;;;1.02;85.47
47218;BME280;47282;53.362;-2.222;2022-12-26T22:14:14;100874.98;;;1.24;85.56
47218;BME280;47282;53.362;-2.222;2022-12-26T22:16:42;100882.31;;;1.00;85.36
47218;BME280;47282;53.362;-2.222;2022-12-26T22:19:10;100883.28;;;0.96;85.34
47218;BME280;47282;53.362;-2.222;2022-12-26T22:21:38;100888.58;;;1.17;85.28
47218;BME280;47282;53.362;-2.222;2022-12-26T22:24:08;100883.50;;;0.92;85.45
47218;BME280;47282;53.362;-2.222;2022-12-26T22:26:36;100888.81;;;1.15;85.85
47218;BME280;47282;53.362;-2.222;2022-12-26T22:29:04;100890.72;;;1.22;86.44
47218;BME280;47282;53.362;-2.222;2022-12-26T22:31:35;100902.64;;;1.28;86.45
47218;BME280;47282;53.362;-2.222;2022-12-26T22:34:05;100903.55;;;1.14;86.78
47218;BME280;47282;53.362;-2.222;2022-12-26T22:36:34;100906.80;;;1.47;87.27
47218;BME280;47282;53.362;-2.222;2022-12-26T22:39:02;100918.76;;;1.60;87.78
47218;BME280;47282;53.362;-2.222;2022-12-26T22:41:31;100930.82;;;1.54;88.28
47218;BME280;47282;53.362;-2.222;2022-12-26T22:43:59;100928.20;;;1.38;88.33
47218;BME280;47282;53.362;-2.222;2022-12-26T22:46:28;100926.52;;;1.76;88.41
47218;BME280;47282;53.362;-2.222;2022-12-26T22:48:56;100931.33;;;1.58;88.46
47218;BME280;47282;53.362;-2.222;2022-12-26T22:51:25;100933.92;;;1.91;88.29
47218;BME280;47282;53.362;-2.222;2022-12-26T22:53:53;100939.62;;;1.95;88.11
47218;BME280;47282;53.362;-2.222;2022-12-26T22:56:22;100939.19;;;1.95;88.12
47218;BME280;47282;53.362;-2.222;2022-12-26T22:58:51;100939.83;;;1.68;87.50
47218;BME280;47282;53.362;-2.222;2022-12-26T23:01:21;100939.86;;;1.92;87.32
47218;BME280;47282;53.362;-2.222;2022-12-26T23:03:49;100940.97;;;1.89;87.44
47218;BME280;47282;53.362;-2.222;2022-12-26T23:06:19;100944.83;;;1.86;87.40
47218;BME280;47282;53.362;-2.222;2022-12-26T23:08:49;100948.81;;;1.87;87.84
47218;BME280;47282;53.362;-2.222;2022-12-26T23:11:18;100947.81;;;1.65;88.00
47218;BME280;47282;53.362;-2.222;2022-12-26T23:13:47;100954.13;;;1.67;88.03
47218;BME280;47282;53.362;-2.222;2022-12-26T23:16:21;100951.25;;;1.95;88.26
47218;BME280;47282;53.362;-2.222;2022-12-26T23:18:54;100956.19;;;1.73;88.36
47218;BME280;47282;53.362;-2.222;2022-12-26T23:21:27;100953.33;;;1.74;88.37
47218;BME280;47282;53.362;-2.222;2022-12-26T23:23:55;100954.00;;;2.04;88.18
47218;BME280;47282;53.362;-2.222;2022-12-26T23:26:23;100955.62;;;2.07;88.06
47218;BME280;47282;53.362;-2.222;2022-12-26T23:28:51;100958.31;;;1.57;87.96
47218;BME280;47282;53.362;-2.222;2022-12-26T23:31:19;100958.03;;;1.78;87.48
47218;BME280;47282;53.362;-2.222;2022-12-26T23:33:47;100962.97;;;2.01;87.37
47218;BME280;47282;53.362;-2.222;2022-12-26T23:36:15;100964.00;;;1.72;87.66
47218;BME280;47282;53.362;-2.222;2022-12-26T23:38:43;100967.07;;;1.72;87.69
47218;BME280;47282;53.362;-2.222;2022-12-26T23:41:11;100977.19;;;1.73;87.75
47218;BME280;47282;53.362;-2.222;2022-12-26T23:43:39;100983.76;;;1.73;87.83
47218;BME280;47282;53.362;-2.222;2022-12-26T23:46:09;100986.62;;;2.00;87.67
47218;BME280;47282;53.362;-2.222;2022-12-26T23:48:37;100989.33;;;1.50;87.31
47218;BME280;47282;53.362;-2.222;2022-12-26T23:51:06;100992.29;;;1.95;86.94
47218;BME280;47282;53.362;-2.222;2022-12-26T23:53:35;100995.47;;;1.42;87.08
47218;BME280;47282;53.362;-2.222;2022-12-26T23:56:06;101000.73;;;1.90;87.20
47218;BME280;47282;53.362;-2.222;2022-12-26T23:58:36;101004.52;;;1.87;86.83
